Time;durP1;ratioP1;P1;durP2;ratioP2;P2;SDS_P1;SDS_P2;PMS_P1;PMS_P2;Temp;Humidity;BMP_temperature;BMP_pressure;BME280_temperature;BME280_humidity;BME280_pressure;Samples;Min_cycle;Max_cycle;Signal;HPM_P1;HPM_P2
2022/01/01 00:01:03;;;;;;;16.10;9.70;;;13.50;99.90;;;;;;5082079;28;20216;-94
2022/01/01 00:03:33;;;;;;;16.63;9.53;;;13.60;99.90;;;;;;5075916;28;20706;-92
2022/01/01 00:06:01;;;;;;;17.87;9.17;;;13.70;99.90;;;;;;5075040;28;20737;-90
2022/01/01 00:08:29;;;;;;;18.60;9.40;;;13.80;99.90;;;;;;5076177;28;20567;-90
2022/01/01 00:10:59;;;;;;;19.70;8.77;;;13.70;99.90;;;;;;5079524;28;20595;-93
2022/01/01 00:13:31;;;;;;;16.10;8.70;;;13.70;99.90;;;;;;5080953;28;20221;-91
2022/01/01 00:15:59;;;;;;;14.17;8.63;;;13.70;99.90;;;;;;5084139;28;20212;-92
2022/01/01 00:18:29;;;;;;;13.90;8.30;;;13.60;99.90;;;;;;5086714;28;20571;-90
2022/01/01 00:20:56;;;;;;;12.43;7.57;;;13.70;99.90;;;;;;5084900;28;20214;-92
2022/01/01 00:23:25;;;;;;;16.50;8.90;;;13.70;99.90;;;;;;5085421;28;20263;-90
2022/01/01 00:25:53;;;;;;;14.40;8.63;;;13.80;99.90;;;;;;5085561;28;20228;-90
2022/01/01 00:28:22;;;;;;;17.50;8.37;;;13.60;99.90;;;;;;5084818;28;20273;-88
2022/01/01 00:30:55;;;;;;;20.97;10.03;;;13.60;99.90;;;;;;5083888;28;20209;-92
2022/01/01 00:33:29;;;;;;;16.93;8.47;;;13.50;99.90;;;;;;5080293;28;20224;-92
2022/01/01 00:35:56;;;;;;;16.07;9.13;;;13.50;99.90;;;;;;5085106;28;20198;-93
2022/01/01 00:38:36;;;;;;;19.03;9.40;;;13.40;99.90;;;;;;5085180;28;20229;-90
2022/01/01 00:41:05;;;;;;;18.27;10.57;;;13.40;99.90;;;;;;5086818;28;20424;-92
2022/01/01 00:43:32;;;;;;;17.70;9.63;;;13.40;99.90;;;;;;5085044;28;20260;-92
2022/01/01 00:45:59;;;;;;;18.23;9.37;;;13.30;99.90;;;;;;5083366;28;20248;-90
2022/01/01 00:48:31;;;;;;;17.97;10.07;;;13.30;99.90;;;;;;5084718;28;20319;-88
2022/01/01 00:51:04;;;;;;;16.57;9.60;;;13.30;99.90;;;;;;5085626;28;20206;-90
2022/01/01 00:53:37;;;;;;;18.07;10.10;;;13.20;99.90;;;;;;5085192;28;20236;-90
2022/01/01 00:56:04;;;;;;;15.47;10.30;;;13.20;99.90;;;;;;5083159;28;20211;-88
2022/01/01 00:58:35;;;;;;;17.43;10.37;;;13.10;99.90;;;;;;5086849;28;20620;-91
2022/01/01 01:01:11;;;;;;;20.43;9.73;;;13.10;99.90;;;;;;5090814;28;20200;-90
2022/01/01 01:03:39;;;;;;;14.40;9.57;;;13.10;99.90;;;;;;5088585;28;20241;-89
2022/01/01 01:06:13;;;;;;;16.17;9.40;;;13.20;99.90;;;;;;5086237;28;20297;-90
2022/01/01 01:08:47;;;;;;;16.80;10.20;;;13.30;99.90;;;;;;5087104;28;20186;-91
2022/01/01 01:11:48;;;;;;;16.60;10.23;;;13.30;99.90;;;;;;5092151;28;20209;-87
2022/01/01 01:14:23;;;;;;;14.07;9.40;;;13.30;99.90;;;;;;5108721;28;20213;-89
2022/01/01 01:17:10;;;;;;;13.63;8.53;;;13.40;99.90;;;;;;5108546;28;20211;-89
2022/01/01 01:19:42;;;;;;;16.57;9.77;;;13.40;99.90;;;;;;5108015;28;20200;-87
2022/01/01 01:22:15;;;;;;;14.87;8.50;;;13.40;99.90;;;;;;5113254;28;20190;-90
2022/01/01 01:24:48;;;;;;;14.40;8.30;;;13.40;99.90;;;;;;5113918;28;20296;-88
2022/01/01 01:27:16;;;;;;;21.70;8.77;;;13.40;99.90;;;;;;5113394;28;20204;-92
2022/01/01 01:29:45;;;;;;;14.57;8.77;;;13.50;99.90;;;;;;5111681;28;20217;-89
2022/01/01 01:32:30;;;;;;;15.87;8.37;;;13.50;99.90;;;;;;5113764;28;20228;-91
2022/01/01 01:34:59;;;;;;;13.17;8.00;;;13.50;99.90;;;;;;5114331;28;20209;-88
2022/01/01 01:37:28;;;;;;;18.53;8.70;;;13.40;99.90;;;;;;5114514;28;20205;-88
2022/01/01 01:40:05;;;;;;;13.73;8.30;;;13.50;99.90;;;;;;5113973;28;20204;-89
2022/01/01 01:42:34;;;;;;;14.70;8.73;;;13.50;99.90;;;;;;5114588;28;20192;-86
2022/01/01 01:45:03;;;;;;;17.77;8.90;;;13.40;99.90;;;;;;5113653;28;20217;-88
2022/01/01 01:47:33;;;;;;;13.47;8.33;;;13.40;99.90;;;;;;5114921;28;20204;-88
2022/01/01 01:50:15;;;;;;;16.87;8.27;;;13.30;99.90;;;;;;5114299;28;20276;-89
2022/01/01 01:52:46;;;;;;;12.10;8.07;;;13.30;99.90;;;;;;5110222;28;20527;-88
2022/01/01 01:55:16;;;;;;;13.67;8.60;;;13.40;99.90;;;;;;5112018;28;20212;-89
2022/01/01 01:57:47;;;;;;;17.57;8.37;;;13.30;99.90;;;;;;5112333;28;20204;-88
2022/01/01 02:01:17;;;;;;;16.37;8.47;;;13.50;99.90;;;;;;5111435;28;20201;-88
2022/01/01 02:03:49;;;;;;;14.63;8.83;;;13.50;99.90;;;;;;5110018;28;20223;-87
2022/01/01 02:06:20;;;;;;;12.47;8.10;;;13.40;99.90;;;;;;5111559;28;20375;-88
2022/01/01 02:08:56;;;;;;;15.77;8.43;;;13.40;99.90;;;;;;5113573;28;20260;-88
2022/01/01 02:11:35;;;;;;;14.67;8.63;;;13.50;99.90;;;;;;5113379;28;20296;-89
2022/01/01 02:14:12;;;;;;;16.57;8.47;;;13.50;99.90;;;;;;5113683;28;20201;-90
2022/01/01 02:19:50;;;;;;;16.47;8.07;;;13.50;99.90;;;;;;5100985;28;20234;-89
2022/01/01 02:22:19;;;;;;;12.97;7.07;;;13.50;99.90;;;;;;5108629;28;20205;-89
2022/01/01 02:24:47;;;;;;;13.90;7.33;;;13.40;99.90;;;;;;5107812;28;20315;-88
2022/01/01 02:27:17;;;;;;;12.50;7.60;;;13.30;99.90;;;;;;5107771;28;20258;-86
2022/01/01 02:29:51;;;;;;;11.40;6.70;;;13.30;99.90;;;;;;5108999;28;20220;-89
2022/01/01 02:32:23;;;;;;;14.35;7.95;;;13.20;99.90;;;;;;5107374;28;20426;-93
2022/01/01 02:34:51;;;;;;;16.80;6.90;;;13.30;99.90;;;;;;5059529;28;1115386;-87
2022/01/01 02:37:21;;;;;;;17.73;6.97;;;13.30;99.90;;;;;;5094911;28;20206;-86
2022/01/01 02:39:50;;;;;;;12.63;6.93;;;13.20;99.90;;;;;;5094892;28;20263;-88
2022/01/01 02:42:21;;;;;;;13.93;6.87;;;13.20;99.90;;;;;;5094893;28;20530;-90
2022/01/01 02:44:54;;;;;;;11.90;6.00;;;13.30;99.90;;;;;;5094988;28;20630;-87
2022/01/01 02:47:29;;;;;;;11.87;6.60;;;13.20;99.90;;;;;;5094491;28;20236;-86
2022/01/01 02:50:02;;;;;;;12.30;6.27;;;13.10;99.90;;;;;;5095188;28;20538;-86
2022/01/01 02:52:34;;;;;;;15.80;6.50;;;13.20;99.90;;;;;;5094834;28;20532;-87
2022/01/01 02:55:02;;;;;;;16.77;6.90;;;13.00;99.90;;;;;;5094733;28;20211;-86
2022/01/01 02:57:29;;;;;;;10.37;5.97;;;13.00;99.90;;;;;;5094249;28;20196;-88
2022/01/01 02:59:57;;;;;;;16.80;6.20;;;13.00;99.90;;;;;;5094537;28;20664;-85
2022/01/01 03:02:24;;;;;;;16.50;6.63;;;13.00;99.90;;;;;;5094176;28;20204;-84
2022/01/01 03:04:52;;;;;;;10.97;5.93;;;13.00;99.90;;;;;;5094117;28;20691;-87
2022/01/01 03:07:21;;;;;;;15.33;6.37;;;13.00;99.90;;;;;;5093800;28;20189;-89
2022/01/01 03:09:52;;;;;;;9.40;5.67;;;13.10;99.90;;;;;;5094468;28;20644;-90
2022/01/01 03:12:25;;;;;;;11.50;5.70;;;13.00;99.90;;;;;;5094294;28;20204;-90
2022/01/01 03:14:58;;;;;;;9.00;5.30;;;13.10;99.90;;;;;;5092696;28;20200;-90
2022/01/01 03:17:30;;;;;;;12.33;6.27;;;13.00;99.90;;;;;;5094398;28;20197;-90
2022/01/01 03:19:57;;;;;;;9.90;6.07;;;13.00;99.90;;;;;;5094731;28;20208;-86
2022/01/01 03:22:27;;;;;;;15.97;5.83;;;12.90;99.90;;;;;;5093992;28;20219;-89
2022/01/01 03:25:02;;;;;;;10.87;5.70;;;12.90;99.90;;;;;;5094380;28;20229;-88
2022/01/01 03:27:30;;;;;;;11.63;6.10;;;12.90;99.90;;;;;;5094087;28;20196;-86
2022/01/01 03:29:58;;;;;;;12.60;6.40;;;12.90;99.90;;;;;;5093998;28;20294;-88
2022/01/01 03:32:25;;;;;;;9.97;5.97;;;12.70;99.90;;;;;;5093157;28;20211;-86
2022/01/01 03:34:52;;;;;;;14.13;6.47;;;12.70;99.90;;;;;;5093914;28;20219;-89
2022/01/01 03:37:19;;;;;;;11.63;7.30;;;12.70;99.90;;;;;;5093434;28;20648;-89
2022/01/01 03:39:52;;;;;;;11.93;6.37;;;12.70;99.90;;;;;;5094281;28;20199;-88
2022/01/01 03:42:22;;;;;;;13.57;6.83;;;12.70;99.90;;;;;;5094422;28;20247;-89
2022/01/01 03:44:51;;;;;;;13.30;6.80;;;12.70;99.90;;;;;;5093938;28;20258;-89
2022/01/01 03:47:30;;;;;;;15.85;7.00;;;12.70;99.90;;;;;;5093673;28;20422;-90
2022/01/01 03:49:58;;;;;;;18.40;6.40;;;12.60;99.90;;;;;;5093874;28;20204;-87
2022/01/01 03:52:26;;;;;;;13.67;6.80;;;12.50;99.90;;;;;;5093379;28;20636;-90
2022/01/01 03:54:55;;;;;;;12.13;6.50;;;12.50;99.90;;;;;;5093788;28;20208;-89
2022/01/01 03:57:26;;;;;;;11.90;6.93;;;12.40;99.90;;;;;;5093645;28;20208;-90
2022/01/01 04:00:23;;;;;;;14.67;7.70;;;12.30;99.90;;;;;;5093534;28;20296;-90
2022/01/01 04:02:52;;;;;;;13.13;6.57;;;12.40;99.90;;;;;;5093624;28;20211;-89
2022/01/01 04:05:21;;;;;;;14.30;6.97;;;12.50;99.90;;;;;;5093166;28;20235;-90
2022/01/01 04:07:51;;;;;;;15.57;7.00;;;12.50;99.90;;;;;;5093967;28;20215;-85
2022/01/01 04:10:24;;;;;;;12.93;7.47;;;12.40;99.90;;;;;;5093571;28;20208;-84
2022/01/01 04:12:53;;;;;;;13.33;7.30;;;12.50;99.90;;;;;;5093387;28;20197;-85
2022/01/01 04:15:21;;;;;;;15.03;7.17;;;12.50;99.90;;;;;;5093652;28;20206;-83
2022/01/01 04:17:50;;;;;;;13.57;7.40;;;12.40;99.90;;;;;;5087704;28;20213;-89
2022/01/01 04:20:18;;;;;;;15.47;7.60;;;12.40;99.90;;;;;;5072849;28;20213;-84
2022/01/01 04:22:45;;;;;;;13.57;8.37;;;12.40;99.90;;;;;;5073175;28;20563;-86
2022/01/01 04:25:12;;;;;;;15.13;7.60;;;12.40;99.90;;;;;;5072732;28;20220;-85
2022/01/01 04:27:45;;;;;;;15.53;8.80;;;12.30;99.90;;;;;;5073141;28;20197;-83
2022/01/01 04:30:15;;;;;;;14.93;8.77;;;12.30;99.90;;;;;;5072869;28;20197;-85
2022/01/01 04:32:42;;;;;;;13.03;8.00;;;12.30;99.90;;;;;;5072813;28;20209;-84
2022/01/01 04:35:09;;;;;;;12.77;8.83;;;12.30;99.90;;;;;;5072580;28;20218;-87
2022/01/01 04:37:38;;;;;;;18.00;9.50;;;12.20;99.90;;;;;;5072708;28;20222;-86
2022/01/01 04:40:08;;;;;;;12.80;9.07;;;12.20;99.90;;;;;;5072853;28;20296;-85
2022/01/01 04:42:38;;;;;;;16.97;8.87;;;12.10;99.90;;;;;;5072785;28;20205;-83
2022/01/01 04:45:12;;;;;;;20.37;9.37;;;12.10;99.90;;;;;;5072840;28;20236;-84
2022/01/01 04:47:40;;;;;;;17.43;9.47;;;12.10;99.90;;;;;;5072787;28;20212;-86
2022/01/01 04:50:08;;;;;;;13.27;8.77;;;12.00;99.90;;;;;;5072460;28;20207;-83
2022/01/01 04:52:37;;;;;;;15.43;9.33;;;12.00;99.90;;;;;;5073288;28;20209;-84
2022/01/01 04:55:10;;;;;;;15.63;9.93;;;12.10;99.90;;;;;;5072719;28;20209;-85
2022/01/01 04:57:43;;;;;;;17.53;10.90;;;12.00;99.90;;;;;;5074308;28;20698;-84
2022/01/01 05:00:16;;;;;;;17.30;10.00;;;12.20;99.90;;;;;;5076646;28;20640;-84
2022/01/01 05:02:50;;;;;;;14.77;10.33;;;12.10;99.90;;;;;;5076479;28;20200;-84
2022/01/01 05:05:17;;;;;;;19.52;13.77;;;12.10;99.90;;;;;;5074792;28;20460;-88
2022/01/01 05:07:44;;;;;;;17.00;11.60;;;12.20;99.90;;;;;;5076254;28;20213;-87
2022/01/01 05:10:14;;;;;;;20.87;11.73;;;12.20;99.90;;;;;;5076191;28;20737;-86
2022/01/01 05:12:41;;;;;;;22.77;12.37;;;12.00;99.90;;;;;;5076356;28;20213;-83
2022/01/01 05:15:09;;;;;;;19.77;12.20;;;12.00;99.90;;;;;;5076079;28;20573;-84
2022/01/01 05:17:39;;;;;;;19.37;11.10;;;12.00;99.90;;;;;;5076445;28;20585;-83
2022/01/01 05:20:09;;;;;;;22.77;12.17;;;12.00;99.90;;;;;;5075077;28;20207;-89
2022/01/01 05:22:37;;;;;;;18.23;12.27;;;12.00;99.90;;;;;;5076626;28;20232;-91
2022/01/01 05:25:07;;;;;;;20.47;12.40;;;12.10;99.90;;;;;;5075691;28;20235;-88
2022/01/01 05:27:40;;;;;;;20.17;12.27;;;12.00;99.90;;;;;;5075682;28;20208;-86
2022/01/01 05:30:13;;;;;;;20.83;12.17;;;12.00;99.90;;;;;;5075866;28;20199;-88
2022/01/01 05:32:44;;;;;;;21.20;12.67;;;12.00;99.90;;;;;;5075546;28;20595;-85
2022/01/01 05:35:13;;;;;;;20.77;12.40;;;12.00;99.90;;;;;;5075517;28;20643;-88
2022/01/01 05:37:41;;;;;;;16.57;12.60;;;12.00;99.90;;;;;;5075538;28;20636;-87
2022/01/01 05:40:12;;;;;;;21.00;12.93;;;11.90;99.90;;;;;;5075809;28;20219;-83
2022/01/01 05:42:40;;;;;;;21.00;13.03;;;11.90;99.90;;;;;;5075782;28;20198;-85
2022/01/01 05:45:12;;;;;;;20.80;13.17;;;11.90;99.90;;;;;;5075598;28;20602;-86
2022/01/01 05:47:41;;;;;;;22.47;13.13;;;11.80;99.90;;;;;;5075295;28;20200;-85
2022/01/01 05:50:17;;;;;;;20.27;14.27;;;11.80;99.90;;;;;;5075569;28;20207;-83
2022/01/01 05:52:44;;;;;;;23.23;13.07;;;11.70;99.90;;;;;;5075752;28;20203;-85
2022/01/01 05:55:13;;;;;;;22.40;14.17;;;11.70;99.90;;;;;;5075341;28;20205;-86
2022/01/01 05:57:41;;;;;;;27.97;14.73;;;11.60;99.90;;;;;;5075261;28;20199;-86
2022/01/01 06:00:08;;;;;;;22.40;14.80;;;11.50;99.90;;;;;;5075603;28;20210;-85
2022/01/01 06:02:39;;;;;;;23.77;14.70;;;11.50;99.90;;;;;;5074594;28;20203;-86
2022/01/01 06:05:08;;;;;;;21.83;13.97;;;11.40;99.90;;;;;;5074958;28;20272;-84
2022/01/01 06:07:36;;;;;;;20.60;14.53;;;11.40;99.90;;;;;;5074865;28;20227;-83
2022/01/01 06:10:06;;;;;;;20.63;15.07;;;11.40;99.90;;;;;;5074296;28;20207;-86
2022/01/01 06:12:38;;;;;;;24.23;15.20;;;11.40;99.90;;;;;;5074957;28;20217;-85
2022/01/01 06:15:06;;;;;;;26.23;15.67;;;11.40;99.90;;;;;;5074990;28;20187;-84
2022/01/01 06:17:33;;;;;;;20.67;14.83;;;11.40;99.90;;;;;;5074753;28;20210;-84
2022/01/01 06:20:00;;;;;;;23.83;16.43;;;11.40;99.90;;;;;;5074955;28;20235;-85
2022/01/01 06:22:28;;;;;;;27.08;19.80;;;11.40;99.90;;;;;;5073905;28;20438;-86
2022/01/01 06:24:57;;;;;;;24.13;17.60;;;11.40;99.90;;;;;;5075404;28;20246;-85
2022/01/01 06:27:24;;;;;;;24.23;16.50;;;11.40;99.90;;;;;;5074988;28;20670;-84
2022/01/01 06:29:51;;;;;;;24.27;16.47;;;11.30;99.90;;;;;;5075199;28;20216;-84
2022/01/01 06:32:20;;;;;;;32.30;17.53;;;11.30;99.90;;;;;;5074803;28;20204;-85
2022/01/01 06:34:48;;;;;;;29.40;17.40;;;11.40;99.90;;;;;;5074390;28;20231;-87
2022/01/01 06:37:16;;;;;;;29.17;17.90;;;11.30;99.90;;;;;;5074203;28;20211;-84
2022/01/01 06:39:44;;;;;;;26.03;16.90;;;11.20;99.90;;;;;;5074344;28;20221;-87
2022/01/01 06:42:12;;;;;;;25.60;17.30;;;11.20;99.90;;;;;;5074193;28;20202;-87
2022/01/01 06:44:39;;;;;;;27.30;17.57;;;11.30;99.90;;;;;;5074560;28;20231;-90
2022/01/01 06:47:06;;;;;;;28.60;17.17;;;11.20;99.90;;;;;;5074842;28;20202;-88
2022/01/01 06:49:36;;;;;;;29.80;18.40;;;11.30;99.90;;;;;;5074329;28;20196;-87
2022/01/01 06:52:06;;;;;;;25.80;18.40;;;11.30;99.90;;;;;;5074539;28;20553;-89
2022/01/01 06:54:36;;;;;;;28.50;18.90;;;11.30;99.90;;;;;;5074817;28;20203;-87
2022/01/01 06:57:09;;;;;;;29.80;18.47;;;11.30;99.90;;;;;;5074789;28;20532;-89
2022/01/01 06:59:47;;;;;;;30.57;18.00;;;11.40;99.90;;;;;;5074124;28;20192;-85
2022/01/01 07:02:17;;;;;;;30.10;17.77;;;11.40;99.90;;;;;;5074235;28;20305;-86
2022/01/01 07:04:45;;;;;;;28.87;17.60;;;11.30;99.90;;;;;;5074344;28;20222;-87
2022/01/01 07:07:15;;;;;;;31.93;19.83;;;11.20;99.90;;;;;;5074538;28;20217;-87
2022/01/01 07:09:42;;;;;;;32.20;20.20;;;11.20;99.90;;;;;;5074031;28;20234;-87
2022/01/01 07:12:15;;;;;;;30.30;20.23;;;11.20;99.90;;;;;;5076045;28;20210;-91
2022/01/01 07:14:45;;;;;;;31.07;20.30;;;11.20;99.90;;;;;;5074244;28;20191;-91
2022/01/01 07:17:14;;;;;;;36.43;21.23;;;11.20;99.90;;;;;;5074959;28;20199;-89
2022/01/01 07:19:42;;;;;;;33.30;21.73;;;11.10;99.90;;;;;;5074536;28;20221;-87
2022/01/01 07:22:12;;;;;;;33.20;21.20;;;11.20;99.90;;;;;;5075262;28;20205;-85
2022/01/01 07:24:45;;;;;;;38.30;22.80;;;11.20;99.90;;;;;;5074317;28;20680;-87
2022/01/01 07:27:13;;;;;;;35.73;21.60;;;11.30;99.90;;;;;;5091010;28;20276;-88
2022/01/01 07:29:47;;;;;;;35.30;22.30;;;11.20;99.90;;;;;;5094184;28;20206;-89
2022/01/01 07:32:19;;;;;;;40.33;22.83;;;11.30;99.90;;;;;;5094677;28;20189;-90
2022/01/01 07:34:48;;;;;;;37.37;22.03;;;11.10;99.90;;;;;;5094570;28;20201;-88
2022/01/01 07:37:17;;;;;;;41.33;22.33;;;11.20;99.90;;;;;;5095206;28;20205;-89
2022/01/01 07:39:47;;;;;;;42.13;22.53;;;11.10;99.90;;;;;;5096144;28;20220;-87
2022/01/01 07:42:16;;;;;;;35.27;21.70;;;11.20;99.90;;;;;;5094745;28;20201;-87
2022/01/01 07:44:50;;;;;;;36.53;21.93;;;11.20;99.90;;;;;;5093905;28;20249;-90
2022/01/01 07:47:23;;;;;;;39.00;19.90;;;11.20;99.90;;;;;;5095524;28;20211;-90
2022/01/01 07:49:52;;;;;;;35.30;22.13;;;11.40;99.90;;;;;;5094862;28;20193;-86
2022/01/01 07:52:25;;;;;;;35.57;20.70;;;11.20;99.90;;;;;;5094283;28;20200;-87
2022/01/01 07:54:59;;;;;;;34.70;20.60;;;11.10;99.90;;;;;;5095389;28;20205;-88
2022/01/01 07:57:26;;;;;;;31.87;20.33;;;11.20;99.90;;;;;;5094314;28;20190;-88
2022/01/01 07:59:58;;;;;;;34.63;20.90;;;11.10;99.90;;;;;;5094859;28;20240;-89
2022/01/01 08:02:40;;;;;;;34.07;19.47;;;11.10;99.90;;;;;;5095724;28;20205;-91
2022/01/01 08:05:09;;;;;;;31.47;19.27;;;11.20;99.90;;;;;;5094669;28;20218;-85
2022/01/01 08:07:42;;;;;;;35.33;20.57;;;11.20;99.90;;;;;;5093922;28;20219;-85
2022/01/01 08:10:09;;;;;;;31.60;20.13;;;11.20;99.90;;;;;;5093833;28;20307;-90
2022/01/01 08:12:40;;;;;;;32.27;19.80;;;11.20;99.90;;;;;;5094220;28;20205;-91
2022/01/01 08:15:09;;;;;;;33.20;20.37;;;11.20;99.90;;;;;;5093877;28;20194;-87
2022/01/01 08:17:37;;;;;;;28.23;19.13;;;11.40;99.90;;;;;;5093933;28;20202;-85
2022/01/01 08:20:07;;;;;;;34.87;19.97;;;11.40;99.90;;;;;;5095349;28;20212;-88
2022/01/01 08:22:37;;;;;;;30.77;19.50;;;11.40;99.90;;;;;;5094582;28;20194;-90
2022/01/01 08:25:06;;;;;;;31.23;18.63;;;11.60;99.90;;;;;;5094307;28;20233;-89
2022/01/01 08:27:35;;;;;;;26.43;18.93;;;11.60;99.90;;;;;;5094001;28;20198;-86
2022/01/01 08:30:06;;;;;;;27.20;18.10;;;11.60;99.90;;;;;;5095224;28;20205;-88
2022/01/01 08:32:36;;;;;;;27.57;17.87;;;11.70;99.90;;;;;;5095086;28;20201;-90
2022/01/01 08:35:05;;;;;;;27.47;17.83;;;11.60;99.90;;;;;;5097714;28;20225;-85
2022/01/01 08:37:33;;;;;;;27.37;17.87;;;11.60;99.90;;;;;;5097297;28;20638;-86
2022/01/01 08:40:07;;;;;;;30.57;17.63;;;11.60;99.90;;;;;;5097281;28;20202;-83
2022/01/01 08:42:34;;;;;;;23.33;16.17;;;11.80;99.90;;;;;;5097618;28;20201;-83
2022/01/01 08:45:05;;;;;;;24.50;15.83;;;11.70;99.90;;;;;;5097245;28;20660;-91
2022/01/01 08:47:31;;;;;;;20.93;14.20;;;11.70;99.90;;;;;;5095321;28;20213;-89
2022/01/01 08:50:04;;;;;;;21.97;15.53;;;11.70;99.90;;;;;;5077098;28;20207;-87
2022/01/01 08:52:33;;;;;;;21.03;14.43;;;11.70;99.90;;;;;;5077825;28;20206;-89
2022/01/01 08:55:03;;;;;;;21.63;18.20;;;11.70;99.90;;;;;;5076310;28;20440;-89
2022/01/01 08:57:37;;;;;;;21.77;15.30;;;11.70;99.90;;;;;;5077171;28;20204;-90
2022/01/01 09:00:07;;;;;;;23.27;15.87;;;11.80;99.90;;;;;;5077078;28;20203;-87
2022/01/01 09:02:35;;;;;;;26.47;15.87;;;11.80;99.90;;;;;;5077053;28;20265;-88
2022/01/01 09:05:11;;;;;;;17.60;13.30;;;11.90;99.90;;;;;;5077410;28;20204;-90
2022/01/01 09:07:40;;;;;;;17.23;13.40;;;11.80;99.90;;;;;;5076874;28;20183;-86
2022/01/01 09:10:15;;;;;;;16.80;13.00;;;11.90;99.90;;;;;;5076421;28;20214;-86
2022/01/01 09:12:51;;;;;;;18.03;13.27;;;11.90;99.90;;;;;;5075162;28;20204;-89
2022/01/01 09:15:17;;;;;;;14.80;12.13;;;11.80;99.90;;;;;;5076300;28;20187;-88
2022/01/01 09:17:47;;;;;;;16.27;11.97;;;11.80;99.90;;;;;;5076700;28;20202;-87
2022/01/01 09:20:23;;;;;;;16.73;11.47;;;11.80;99.90;;;;;;5076674;28;20211;-90
2022/01/01 09:22:50;;;;;;;18.93;11.70;;;11.80;99.90;;;;;;5076613;28;20206;-90
2022/01/01 09:25:23;;;;;;;14.47;11.90;;;11.90;99.90;;;;;;5076474;28;20210;-87
2022/01/01 09:27:53;;;;;;;14.80;11.17;;;12.00;99.90;;;;;;5076113;28;20204;-87
2022/01/01 09:30:21;;;;;;;14.53;10.63;;;12.00;99.90;;;;;;5076731;28;20218;-87
2022/01/01 09:32:50;;;;;;;14.17;10.73;;;12.10;99.90;;;;;;5077779;28;20265;-91
2022/01/01 09:35:19;;;;;;;15.60;10.83;;;12.10;99.90;;;;;;5076229;28;20209;-90
2022/01/01 09:37:51;;;;;;;15.10;11.00;;;12.10;99.90;;;;;;5076301;28;20203;-89
2022/01/01 09:40:18;;;;;;;13.30;11.13;;;12.00;99.90;;;;;;5076603;28;20203;-84
2022/01/01 09:42:47;;;;;;;15.17;11.97;;;12.00;99.90;;;;;;5087484;28;20188;-88
2022/01/01 09:45:16;;;;;;;13.73;11.00;;;12.00;99.90;;;;;;5087595;28;20225;-85
2022/01/01 09:47:50;;;;;;;13.03;10.77;;;12.00;99.90;;;;;;5090694;28;20663;-85
2022/01/01 09:50:18;;;;;;;16.40;10.33;;;12.00;99.90;;;;;;5075862;28;20193;-87
2022/01/01 09:52:45;;;;;;;11.83;9.90;;;12.00;99.90;;;;;;5074687;28;20211;-85
2022/01/01 09:55:19;;;;;;;12.07;9.97;;;12.00;99.90;;;;;;5074270;28;20211;-86
2022/01/01 09:57:48;;;;;;;11.80;9.63;;;12.00;99.90;;;;;;5074780;28;20213;-85
2022/01/01 10:00:17;;;;;;;10.80;9.07;;;12.00;99.90;;;;;;5075624;28;20630;-85
2022/01/01 10:02:44;;;;;;;10.73;9.63;;;12.10;99.90;;;;;;5075632;28;20206;-88
2022/01/01 10:05:13;;;;;;;11.43;9.13;;;12.10;99.90;;;;;;5088112;28;20192;-89
2022/01/01 10:07:45;;;;;;;12.30;9.37;;;12.20;99.90;;;;;;5075686;28;20208;-88
2022/01/01 10:10:25;;;;;;;12.47;10.40;;;12.20;99.90;;;;;;5074914;28;20447;-91
2022/01/01 10:12:54;;;;;;;12.67;8.90;;;12.20;99.90;;;;;;5075992;28;20188;-89
2022/01/01 10:15:22;;;;;;;11.07;8.87;;;12.20;99.90;;;;;;5094571;28;20292;-87
2022/01/01 10:17:49;;;;;;;11.07;8.73;;;12.20;99.90;;;;;;5077588;28;20691;-85
2022/01/01 10:20:17;;;;;;;10.97;8.90;;;12.30;99.90;;;;;;5074822;28;20522;-82
2022/01/01 10:22:48;;;;;;;13.07;9.33;;;12.40;99.90;;;;;;5075714;28;20647;-83
2022/01/01 10:28:04;;;;;;;11.20;8.60;;;12.50;99.90;;;;;;5074273;28;20196;-83
2022/01/01 10:30:35;;;;;;;9.63;8.57;;;12.50;99.90;;;;;;5074507;28;20204;-85
2022/01/01 10:33:15;;;;;;;8.93;8.10;;;12.50;99.90;;;;;;5074296;28;20267;-85
2022/01/01 10:35:45;;;;;;;10.03;7.93;;;12.50;99.90;;;;;;5074157;28;20193;-86
2022/01/01 10:38:16;;;;;;;8.37;7.57;;;12.70;99.90;;;;;;5073652;28;20196;-86
2022/01/01 10:40:53;;;;;;;8.97;7.47;;;12.70;99.90;;;;;;5091576;28;20193;-82
2022/01/01 10:43:39;;;;;;;8.37;7.33;;;12.80;99.90;;;;;;5091242;28;20247;-82
2022/01/01 10:46:10;;;;;;;7.73;6.90;;;12.90;99.90;;;;;;5077859;28;20303;-82
2022/01/01 10:48:53;;;;;;;7.10;6.40;;;12.90;99.90;;;;;;5077272;28;20207;-86
2022/01/01 10:51:20;;;;;;;8.50;6.23;;;12.80;99.90;;;;;;5077573;28;20207;-85
2022/01/01 10:53:47;;;;;;;6.77;6.03;;;12.90;99.90;;;;;;5078292;28;20244;-86
2022/01/01 10:56:19;;;;;;;9.03;7.10;;;12.90;99.90;;;;;;5076336;28;20216;-84
2022/01/01 10:59:00;;;;;;;7.47;5.57;;;13.00;99.90;;;;;;5076903;28;20193;-87
2022/01/01 11:01:27;;;;;;;6.03;5.47;;;12.90;99.90;;;;;;5076906;28;20204;-83
2022/01/01 11:03:55;;;;;;;7.27;5.77;;;13.00;99.90;;;;;;5078407;28;20200;-84
2022/01/01 11:06:27;;;;;;;7.17;5.40;;;13.00;99.90;;;;;;5090525;28;20218;-87
2022/01/01 11:08:56;;;;;;;8.80;6.47;;;13.00;99.90;;;;;;5092777;28;20192;-85
2022/01/01 11:11:23;;;;;;;10.23;6.90;;;12.90;99.90;;;;;;5084312;28;20201;-91
2022/01/01 11:13:56;;;;;;;5.90;5.40;;;12.80;99.90;;;;;;5078081;28;20207;-87
2022/01/01 11:16:30;;;;;;;6.73;5.90;;;12.80;99.90;;;;;;5074751;28;20568;-86
2022/01/01 11:18:59;;;;;;;6.65;5.28;;;12.70;99.90;;;;;;5075264;28;20424;-86
2022/01/01 11:21:26;;;;;;;5.70;5.23;;;12.70;99.90;;;;;;5074688;28;20668;-86
2022/01/01 11:23:53;;;;;;;6.27;5.67;;;12.70;99.90;;;;;;5074146;28;20201;-86
2022/01/01 11:26:27;;;;;;;7.67;5.40;;;12.80;99.90;;;;;;5087157;28;20223;-84
2022/01/01 11:28:54;;;;;;;6.30;5.43;;;12.90;99.90;;;;;;5094426;28;20204;-84
2022/01/01 11:31:29;;;;;;;6.37;5.53;;;12.90;99.90;;;;;;5094209;28;20204;-88
2022/01/01 11:34:00;;;;;;;6.27;5.07;;;13.00;99.90;;;;;;5094020;28;20220;-88
2022/01/01 11:36:31;;;;;;;5.80;4.37;;;12.90;99.90;;;;;;5093619;28;20220;-90
2022/01/01 11:39:07;;;;;;;6.03;4.60;;;13.10;99.90;;;;;;5081327;28;20532;-81
2022/01/01 11:41:45;;;;;;;5.07;4.57;;;13.10;99.90;;;;;;5073739;28;20225;-86
2022/01/01 11:44:27;;;;;;;5.63;4.33;;;13.10;99.90;;;;;;5074139;28;20229;-85
2022/01/01 11:47:03;;;;;;;6.97;4.80;;;13.20;99.90;;;;;;5082983;28;20273;-87
2022/01/01 11:49:33;;;;;;;5.17;4.60;;;13.10;99.90;;;;;;5093935;28;20233;-88
2022/01/01 11:52:01;;;;;;;4.90;4.43;;;13.20;99.90;;;;;;5094234;28;20207;-84
2022/01/01 11:54:33;;;;;;;5.17;4.70;;;13.20;99.90;;;;;;5093561;28;20192;-86
2022/01/01 11:57:09;;;;;;;5.30;4.80;;;13.20;99.90;;;;;;5084273;28;20448;-88
2022/01/01 12:00:00;;;;;;;4.53;4.23;;;13.30;99.90;;;;;;5073109;28;20212;-83
2022/01/01 12:02:49;;;;;;;5.63;4.40;;;13.50;99.90;;;;;;5081155;28;20206;-82
2022/01/01 12:05:29;;;;;;;4.50;4.10;;;13.50;99.90;;;;;;5072731;28;20663;-83
2022/01/01 12:07:58;;;;;;;4.30;3.90;;;13.50;99.90;;;;;;5087964;28;20260;-83
2022/01/01 12:10:28;;;;;;;7.10;3.87;;;13.50;99.90;;;;;;5079987;28;20213;-86
2022/01/01 12:12:57;;;;;;;4.80;4.03;;;13.50;99.90;;;;;;5077338;28;20197;-84
2022/01/01 12:15:32;;;;;;;4.30;3.90;;;13.70;99.90;;;;;;5082393;28;20208;-86
2022/01/01 12:18:06;;;;;;;3.93;3.63;;;13.80;99.90;;;;;;5080750;28;20205;-88
2022/01/01 12:20:38;;;;;;;3.80;3.50;;;13.90;99.90;;;;;;5076791;28;20189;-87
2022/01/01 12:23:07;;;;;;;3.97;2.93;;;14.00;99.90;;;;;;5079144;28;20198;-87
2022/01/01 12:25:36;;;;;;;5.10;3.80;;;14.10;99.90;;;;;;5086171;28;20644;-88
2022/01/01 12:28:06;;;;;;;4.33;3.33;;;14.30;99.90;;;;;;5088788;28;20217;-87
2022/01/01 12:30:40;;;;;;;3.37;3.07;;;14.40;99.90;;;;;;5097581;28;20216;-82
2022/01/01 12:33:22;;;;;;;4.93;3.60;;;14.40;99.90;;;;;;5097277;28;20202;-87
2022/01/01 12:35:52;;;;;;;4.72;3.67;;;14.40;99.90;;;;;;5095920;28;20422;-84
2022/01/01 12:38:21;;;;;;;4.63;3.00;;;14.50;99.90;;;;;;5097456;28;20189;-88
2022/01/01 12:41:08;;;;;;;3.70;3.40;;;14.30;99.90;;;;;;5097221;28;20209;-88
2022/01/01 12:43:48;;;;;;;4.33;3.40;;;14.50;99.90;;;;;;5097066;28;20202;-84
2022/01/01 12:46:17;;;;;;;5.10;3.20;;;14.50;99.90;;;;;;5095839;28;20240;-83
2022/01/01 12:48:45;;;;;;;2.93;2.73;;;14.50;99.90;;;;;;5076745;28;20209;-88
2022/01/01 12:51:14;;;;;;;3.17;2.80;;;14.50;99.90;;;;;;5076390;28;20209;-84
2022/01/01 12:53:43;;;;;;;4.03;3.47;;;14.40;99.90;;;;;;5076498;28;20213;-83
2022/01/01 12:56:13;;;;;;;3.07;2.87;;;14.50;99.90;;;;;;5076929;28;20209;-86
2022/01/01 12:58:45;;;;;;;4.40;2.90;;;14.40;99.90;;;;;;5077100;28;20206;-86
2022/01/01 13:01:17;;;;;;;3.30;3.00;;;14.40;99.90;;;;;;5077188;28;20288;-84